TimeEDT,TemperatureF,Dew PointF,Humidity,Sea Level PressureIn,VisibilityMPH,Wind Direction,Wind SpeedMPH,Gust SpeedMPH,PrecipitationIn,Events,Conditions,WindDirDegrees,DateUTC
12:14 AM,53.1,52.0,96,29.70,7.0,WSW,5.8,-,0.00,Rain,Light Rain,250,2013-10-18 04:14:00
12:35 AM,52.0,51.1,97,29.66,6.0,ESE,5.8,-,0.00,Rain,Light Rain,120,2013-10-18 04:35:00
12:53 AM,52.0,51.1,97,29.66,10.0,SE,4.6,-,0.00,,Overcast,140,2013-10-18 04:53:00
1:53 AM,52.0,51.1,97,29.71,10.0,West,8.1,-,N/A,,Overcast,280,2013-10-18 05:53:00
2:01 AM,52.0,51.1,97,29.72,10.0,West,9.2,-,N/A,,Overcast,280,2013-10-18 06:01:00
2:40 AM,52.0,51.1,97,29.72,6.0,WSW,5.8,-,0.01,Rain,Light Rain,250,2013-10-18 06:40:00
2:53 AM,52.0,51.1,97,29.72,9.0,West,4.6,-,0.01,,Overcast,260,2013-10-18 06:53:00
3:13 AM,52.0,51.1,97,29.72,9.0,WSW,5.8,-,N/A,,Overcast,250,2013-10-18 07:13:00
3:53 AM,52.0,51.1,97,29.73,10.0,West,6.9,-,0.05,Rain,Light Rain,270,2013-10-18 07:53:00
4:19 AM,52.0,51.1,97,29.74,10.0,West,6.9,-,0.00,Rain,Light Rain,280,2013-10-18 08:19:00
4:53 AM,53.1,50.0,89,29.75,10.0,West,9.2,-,0.00,,Overcast,280,2013-10-18 08:53:00
5:25 AM,52.0,50.0,93,29.76,10.0,West,9.2,-,N/A,,Overcast,260,2013-10-18 09:25:00
5:53 AM,52.0,48.9,89,29.76,10.0,West,8.1,-,N/A,,Mostly Cloudy,260,2013-10-18 09:53:00
6:00 AM,52.0,48.9,89,29.76,10.0,WSW,9.2,-,N/A,,Overcast,250,2013-10-18 10:00:00
6:53 AM,51.1,46.9,86,29.77,10.0,West,12.7,-,N/A,,Mostly Cloudy,260,2013-10-18 10:53:00
7:53 AM,52.0,46.9,83,29.79,10.0,WSW,11.5,-,N/A,,Overcast,250,2013-10-18 11:53:00
8:53 AM,53.1,46.0,77,29.81,10.0,West,11.5,-,N/A,,Clear,260,2013-10-18 12:53:00
9:20 AM,53.1,45.0,74,29.82,10.0,West,17.3,26.5,N/A,,Mostly Cloudy,270,2013-10-18 13:20:00
9:53 AM,54.0,46.0,75,29.83,10.0,West,17.3,24.2,N/A,,Mostly Cloudy,270,2013-10-18 13:53:00
10:53 AM,55.9,46.0,69,29.84,10.0,West,12.7,-,N/A,,Overcast,260,2013-10-18 14:53:00
11:36 AM,55.9,46.0,69,29.85,10.0,West,17.3,27.6,N/A,,Mostly Cloudy,260,2013-10-18 15:36:00
11:53 AM,57.9,45.0,62,29.85,10.0,West,17.3,27.6,N/A,,Mostly Cloudy,260,2013-10-18 15:53:00
12:53 PM,57.0,41.0,55,29.85,10.0,West,17.3,25.3,N/A,,Overcast,270,2013-10-18 16:53:00
1:53 PM,59.0,34.0,39,29.85,10.0,WSW,15.0,26.5,N/A,,Clear,250,2013-10-18 17:53:00
2:53 PM,57.9,36.0,44,29.87,10.0,WSW,18.4,31.1,N/A,,Clear,250,2013-10-18 18:53:00
3:53 PM,57.9,36.0,44,29.88,10.0,West,10.4,26.5,N/A,,Clear,270,2013-10-18 19:53:00
4:53 PM,55.9,36.0,47,29.88,10.0,West,15.0,23.0,N/A,,Clear,280,2013-10-18 20:53:00
5:53 PM,54.0,37.0,53,29.90,10.0,WNW,9.2,-,N/A,,Mostly Cloudy,290,2013-10-18 21:53:00
6:53 PM,51.1,39.9,66,29.91,10.0,WNW,5.8,-,N/A,,Overcast,300,2013-10-18 22:53:00
7:53 PM,48.9,39.0,69,29.92,10.0,Calm,Calm,-,N/A,,Clear,0,2013-10-18 23:53:00
8:53 PM,45.0,39.0,80,29.93,10.0,East,3.5,-,N/A,,Clear,90,2013-10-19 00:53:00
9:53 PM,42.1,39.0,89,29.94,10.0,ENE,4.6,-,N/A,,Clear,70,2013-10-19 01:53:00
10:53 PM,42.1,39.0,89,29.94,10.0,Calm,Calm,-,N/A,,Clear,0,2013-10-19 02:53:00
11:53 PM,41.0,39.0,93,29.94,10.0,Calm,Calm,-,N/A,,Mostly Cloudy,0,2013-10-19 03:53:00